createdAt,value
2019-05-30T00:01:49.844Z,2.70
2019-05-30T00:06:52.103Z,3.00
2019-05-30T00:11:54.717Z,2.90
2019-05-30T00:16:57.045Z,3.00
2019-05-30T00:21:59.337Z,3.10
2019-05-30T00:27:02.445Z,3.63
2019-05-30T00:32:05.219Z,2.22
2019-05-30T00:37:07.739Z,2.20
2019-05-30T00:42:10.116Z,2.50
2019-05-30T00:47:12.513Z,2.50
2019-05-30T00:52:14.771Z,2.40
2019-05-30T00:57:17.095Z,2.30
2019-05-30T01:02:19.448Z,2.10
2019-05-30T01:07:21.721Z,2.30
2019-05-30T01:12:24.024Z,2.27
2019-05-30T01:17:26.285Z,2.40
2019-05-30T01:22:28.584Z,2.63
2019-05-30T01:27:30.834Z,2.50
2019-05-30T01:32:33.115Z,2.80
2019-05-30T01:37:35.383Z,2.70
2019-05-30T01:42:37.698Z,2.37
2019-05-30T01:47:40.365Z,2.47
2019-05-30T01:52:43.062Z,2.60
2019-05-30T01:57:45.323Z,2.80
2019-05-30T02:02:48.085Z,2.67
2019-05-30T02:07:50.427Z,2.80
2019-05-30T02:12:52.717Z,2.80
2019-05-30T02:17:54.995Z,2.67
2019-05-30T02:22:57.236Z,2.40
2019-05-30T02:28:00.063Z,2.50
2019-05-30T02:33:02.995Z,2.52
2019-05-30T02:38:07.213Z,2.40
2019-05-30T02:43:10.446Z,2.30
2019-05-30T02:48:13.524Z,2.67
2019-05-30T02:53:15.866Z,2.60
2019-05-30T02:58:18.485Z,2.77
2019-05-30T03:03:20.751Z,2.70
2019-05-30T03:08:23.213Z,2.60
2019-05-30T03:13:25.646Z,2.65
2019-05-30T03:18:27.926Z,2.80
2019-05-30T03:23:30.266Z,2.73
2019-05-30T03:33:44.912Z,3.00
2019-05-30T03:38:47.255Z,2.80
2019-05-30T03:43:49.577Z,2.53
2019-05-30T03:48:53.112Z,2.60
2019-05-30T03:53:55.990Z,2.57
2019-05-30T03:59:02.835Z,2.90
2019-05-30T04:04:11.578Z,2.55
2019-05-30T04:09:21.844Z,2.70
2019-05-30T04:14:20.739Z,2.83
2019-05-30T04:19:23.005Z,2.90
2019-05-30T04:24:25.326Z,3.00
2019-05-30T04:29:27.620Z,3.20
2019-05-30T04:34:30.284Z,2.87
2019-05-30T04:39:32.555Z,2.80
2019-05-30T04:44:34.825Z,3.10
2019-05-30T04:49:37.188Z,2.70
2019-05-30T04:54:39.552Z,3.03
2019-05-30T04:59:41.838Z,2.90
2019-05-30T05:04:44.104Z,2.50
2019-05-30T05:09:46.381Z,2.87
2019-05-30T05:14:48.656Z,2.43
2019-05-30T05:19:51.040Z,2.70
2019-05-30T05:24:53.412Z,2.40
2019-05-30T05:29:55.685Z,2.35
2019-05-30T05:34:57.948Z,2.50
2019-05-30T05:40:00.305Z,2.70
2019-05-30T05:45:03.059Z,2.37
2019-05-30T05:50:05.479Z,2.65
2019-05-30T05:55:08.045Z,2.50
2019-05-30T06:00:10.505Z,2.53
2019-05-30T06:05:12.841Z,2.45
2019-05-30T06:10:15.390Z,2.72
2019-05-30T06:15:18.780Z,2.67
2019-05-30T06:20:21.325Z,2.15
2019-05-30T06:25:25.211Z,2.10
2019-05-30T06:30:28.759Z,1.62
2019-05-30T06:35:31.295Z,1.87
2019-05-30T06:40:34.781Z,1.60
2019-05-30T06:45:37.149Z,1.47
2019-05-30T06:50:39.434Z,1.45
2019-05-30T06:55:41.708Z,1.55
2019-05-30T07:00:44.003Z,1.40
2019-05-30T07:05:46.763Z,1.50
2019-05-30T07:10:49.505Z,1.60
2019-05-30T07:15:52.115Z,1.45
2019-05-30T07:20:54.425Z,1.40
2019-05-30T07:25:56.710Z,1.40
2019-05-30T07:30:59.178Z,1.40
2019-05-30T07:36:01.486Z,1.27
2019-05-30T07:41:04.118Z,1.40
2019-05-30T07:46:06.388Z,1.45
2019-05-30T07:51:08.789Z,1.50
2019-05-30T07:56:11.040Z,1.50
2019-05-30T08:01:13.333Z,1.62
2019-05-30T08:06:15.673Z,2.02
2019-05-30T08:11:18.315Z,1.72
2019-05-30T08:16:20.663Z,1.70
2019-05-30T08:21:22.940Z,1.50
2019-05-30T08:26:25.240Z,1.67
2019-05-30T08:31:28.602Z,1.80
2019-05-30T08:36:31.314Z,1.60
2019-05-30T08:41:33.562Z,1.72
2019-05-30T08:46:35.902Z,1.90
2019-05-30T08:51:38.430Z,2.05
2019-05-30T08:56:40.775Z,2.00
2019-05-30T09:01:43.898Z,1.90
2019-05-30T09:06:46.508Z,1.85
2019-05-30T09:11:48.853Z,2.00
2019-05-30T09:16:51.235Z,1.72
2019-05-30T09:21:53.580Z,2.33
2019-05-30T09:26:55.963Z,2.00
2019-05-30T09:31:58.306Z,1.80
2019-05-30T09:37:00.589Z,2.20
2019-05-30T09:42:02.880Z,2.10
2019-05-30T09:47:05.257Z,1.57
2019-05-30T09:52:07.575Z,1.60
2019-05-30T09:57:09.911Z,2.10
2019-05-30T10:02:12.233Z,2.20
2019-05-30T10:07:14.516Z,1.80
2019-05-30T10:12:16.852Z,2.10
2019-05-30T10:17:19.546Z,1.77
2019-05-30T10:22:22.194Z,1.87
2019-05-30T10:27:24.498Z,1.80
2019-05-30T10:32:27.030Z,1.70
2019-05-30T10:37:29.319Z,1.85
2019-05-30T10:42:31.602Z,1.70
2019-05-30T10:47:34.058Z,2.30
2019-05-30T10:52:36.438Z,1.40
2019-05-30T10:57:38.768Z,1.47
2019-05-30T11:02:41.244Z,1.45
2019-05-30T11:08:05.592Z,1.60
2019-05-30T11:18:12.254Z,1.80
2019-05-30T11:23:14.570Z,1.65
2019-05-30T11:28:18.234Z,1.50
2019-05-30T11:33:20.570Z,1.60
2019-05-30T11:38:22.889Z,1.80
2019-05-30T11:43:25.225Z,1.72
2019-05-30T11:48:27.953Z,1.70
2019-05-30T11:53:30.339Z,1.77
2019-05-30T11:58:32.644Z,1.80
2019-05-30T12:03:34.956Z,2.00
2019-05-30T12:08:37.366Z,1.55
2019-05-30T12:13:40.027Z,2.12
2019-05-30T12:18:42.292Z,2.90
2019-05-30T12:23:44.883Z,1.50
2019-05-30T12:28:47.229Z,1.90
2019-05-30T12:33:49.610Z,1.98
2019-05-30T12:38:52.231Z,1.98
2019-05-30T12:43:55.032Z,2.05
2019-05-30T12:48:57.427Z,1.90
2019-05-30T12:54:00.512Z,2.00
2019-05-30T12:59:03.105Z,1.80
2019-05-30T13:04:05.546Z,1.82
2019-05-30T13:09:08.488Z,2.17
2019-05-30T13:14:10.753Z,2.20
2019-05-30T13:19:13.033Z,2.55
2019-05-30T13:24:15.688Z,1.87
2019-05-30T13:29:18.180Z,2.40
2019-05-30T13:34:20.569Z,2.20
2019-05-30T13:39:22.919Z,2.30
2019-05-30T13:44:25.258Z,2.10
2019-05-30T13:49:27.583Z,2.15
2019-05-30T13:54:29.910Z,1.83
2019-05-30T13:59:32.170Z,2.27
2019-05-30T14:04:34.435Z,2.80
2019-05-30T14:09:36.735Z,2.60
2019-05-30T14:14:39.184Z,1.80
2019-05-30T14:19:41.610Z,2.12
2019-05-30T14:24:44.011Z,2.35
2019-05-30T14:29:46.390Z,1.77
2019-05-30T14:34:48.697Z,1.55
2019-05-30T14:39:50.993Z,2.30
2019-05-30T14:44:53.390Z,2.00
2019-05-30T14:49:55.798Z,1.85
2019-05-30T14:54:58.115Z,1.80
2019-05-30T15:00:00.487Z,1.60
2019-05-30T15:05:03.054Z,2.00
2019-05-30T15:10:08.890Z,2.10
2019-05-30T15:20:15.381Z,2.40
2019-05-30T15:25:18.165Z,1.70
2019-05-30T15:30:20.769Z,2.17
2019-05-30T15:35:23.109Z,1.52
2019-05-30T15:40:25.917Z,1.87
2019-05-30T15:45:28.494Z,1.00
2019-05-30T15:50:30.868Z,1.60
2019-05-30T15:55:33.174Z,1.50
2019-05-30T16:00:37.002Z,1.30
2019-05-30T16:05:39.763Z,1.40
2019-05-30T16:10:42.055Z,1.25
2019-05-30T16:15:44.716Z,1.50
2019-05-30T16:20:47.114Z,0.90
2019-05-30T16:25:49.413Z,1.47
2019-05-30T16:30:51.668Z,1.10
2019-05-30T16:35:54.002Z,1.23
2019-05-30T16:40:56.387Z,0.90
2019-05-30T16:45:58.756Z,1.60
2019-05-30T16:51:01.113Z,1.33
2019-05-30T16:56:03.478Z,1.17
2019-05-30T17:01:05.840Z,1.10
2019-05-30T17:06:08.244Z,1.37
2019-05-30T17:11:10.581Z,1.10
2019-05-30T17:16:12.897Z,1.10
2019-05-30T17:21:16.381Z,1.20
2019-05-30T17:26:19.145Z,1.00
2019-05-30T17:31:21.883Z,1.30
2019-05-30T17:36:24.345Z,1.62
2019-05-30T17:41:26.831Z,1.00
2019-05-30T17:46:30.114Z,1.20
2019-05-30T17:51:32.662Z,1.45
2019-05-30T17:56:34.921Z,1.40
2019-05-30T18:01:37.239Z,1.37
2019-05-30T18:06:39.657Z,1.60
2019-05-30T18:11:41.979Z,1.45
2019-05-30T18:16:44.409Z,1.22
2019-05-30T18:21:46.984Z,1.40
2019-05-30T18:26:49.257Z,1.50
2019-05-30T18:31:52.090Z,1.40
2019-05-30T18:36:54.620Z,1.20
2019-05-30T18:41:57.467Z,1.47
2019-05-30T18:47:00.564Z,1.40
2019-05-30T18:52:03.049Z,1.47
2019-05-30T18:57:06.929Z,2.00
2019-05-30T19:02:10.127Z,1.57
2019-05-30T19:07:13.274Z,1.75
2019-05-30T19:12:16.219Z,1.70
2019-05-30T19:17:27.837Z,2.00
2019-05-30T19:22:30.202Z,1.37
2019-05-30T19:27:35.429Z,1.30
2019-05-30T19:32:37.186Z,1.62
2019-05-30T19:37:39.961Z,1.95
2019-05-30T19:42:42.710Z,2.67
2019-05-30T19:47:45.658Z,2.55
2019-05-30T19:52:48.505Z,3.70
2019-05-30T19:57:51.269Z,2.40
2019-05-30T20:02:54.438Z,2.08
2019-05-30T20:07:56.737Z,1.77
2019-05-30T20:12:59.554Z,1.70
2019-05-30T20:18:02.184Z,3.67
2019-05-30T20:23:05.266Z,2.30
2019-05-30T20:28:08.345Z,1.80
2019-05-30T20:33:11.050Z,2.00
2019-05-30T20:38:13.508Z,1.98
2019-05-30T20:43:15.879Z,1.90
2019-05-30T20:48:18.175Z,1.60
2019-05-30T20:53:20.674Z,1.92
2019-05-30T21:15:55.068Z,1.80
2019-05-30T21:20:57.410Z,2.10
2019-05-30T21:25:59.830Z,2.00
2019-05-30T21:31:02.110Z,2.02
2019-05-30T21:36:06.912Z,2.30
2019-05-30T21:41:09.460Z,1.50
2019-05-30T21:46:11.841Z,1.85
2019-05-30T21:51:14.238Z,1.90
2019-05-30T21:56:16.527Z,1.98
2019-05-30T22:01:20.674Z,2.22
2019-05-30T22:06:23.014Z,2.05
2019-05-30T22:11:25.465Z,2.20
2019-05-30T22:16:27.806Z,2.10
2019-05-30T22:21:30.165Z,1.90
2019-05-30T22:26:32.426Z,2.27
2019-05-30T22:31:34.695Z,2.13
2019-05-30T22:36:38.211Z,2.17
2019-05-30T22:41:40.578Z,2.30
2019-05-30T22:46:44.061Z,2.12
2019-05-30T22:51:47.100Z,2.67
2019-05-30T22:56:49.531Z,9.78
2019-05-30T23:01:52.318Z,7.23
2019-05-30T23:06:56.461Z,2.43
2019-05-30T23:11:58.806Z,2.30
2019-05-30T23:17:01.108Z,2.67
2019-05-30T23:22:03.452Z,3.90
2019-05-30T23:27:08.270Z,2.77
2019-05-30T23:32:09.983Z,3.17
2019-05-30T23:37:12.295Z,2.77
2019-05-30T23:42:14.667Z,2.83
2019-05-30T23:47:17.155Z,2.50
2019-05-30T23:52:19.525Z,1.62
2019-05-30T23:57:21.798Z,2.42
